Weather History for Algona, IA

Change the Weather History Date:

Tuesday, March 5, 2013

  Actual Average Record
Temperature  
Mean Temperature 22 °F -  
Max Temperature 28 °F 29 °F 59 °F (2009)
Min Temperature 15 °F 16 °F -5 °F (2003)
Degree Days  
Heating Degree Days 44    
Moisture  
Dew Point 23 °F    
Average Humidity 91    
Maximum Humidity 100    
Minimum Humidity 80    
Precipitation  
Precipitation 0.02 in - - ()
Sea Level Pressure  
Sea Level Pressure 30.05 in    
Wind  
Wind Speed 12 mph (NW)    
Max Wind Speed 25 mph    
Max Gust Speed 32 mph    
Visibility 7 miles    
Events Rain , Snow    
Averages and records for this station are not official NWS values.
T = Trace of Precipitation, MM = Missing Value Source: NWS Daily Summary

Daily Weather History Graph

Daily Weather History Graph

Search for Another Location

Airport:

Trip Planner

Search our weather history database for the weather conditions in past years. The results will help you decide how hot, cold, wet, or windy it might be!

Date:

Astronomy

Mar. 05, 2013 Rise Set
Actual Time 6:45 AM CST 6:11 PM CST
Civil Twilight 6:17 AM CST 6:40 PM CST
Nautical Twilight 5:44 AM CST 7:12 PM CST
Astronomical Twilight 5:11 AM CST 7:46 PM CST
Moon 2:05 AM CST (3/5) 11:44 AM CST (3/5)
Length of Visible Light 12h 22m
Length of Day
11h 25m
Last Quarter, 40% of the Moon is Illuminated
Mar 5
Last Quarter
Mar 11
New
Mar 19
First Quarter
Mar 27
Full
Apr 2
Last Quarter

Hourly Weather History & Observations

Time (CST) Temp. Windchill Dew Point Humidity Pressure Visibility Wind Dir Wind Speed Gust Speed Precip Events Conditions
12:15 AM 28.4 °F 24.6 °F 28.4 °F 100% 29.93 in 4.0 mi SSE 3.5 mph - N/A   Overcast
12:35 AM 28.4 °F 24.6 °F 28.4 °F 100% 29.93 in 3.0 mi South 3.5 mph - N/A   Overcast
12:55 AM 28.4 °F 24.6 °F 28.4 °F 100% 29.93 in 3.0 mi South 3.5 mph - 0.01 in   Overcast
1:15 AM 28.4 °F 22.2 °F 28.4 °F 100% 29.93 in 3.0 mi South 5.8 mph - N/A   Overcast
1:35 AM 28.4 °F 23.3 °F 28.4 °F 100% 29.93 in 2.5 mi South 4.6 mph - N/A   Overcast
1:55 AM 28.4 °F - 28.4 °F 100% 29.92 in 2.0 mi Calm Calm - 0.01 in   Overcast
2:15 AM 28.4 °F 22.2 °F 28.4 °F 100% 29.92 in 2.0 mi SW 5.8 mph - N/A   Overcast
2:35 AM 28.4 °F 19.1 °F 28.4 °F 100% 29.92 in 4.0 mi West 10.4 mph - N/A   Overcast
2:55 AM 28.4 °F 17.5 °F 26.6 °F 93% 29.92 in 4.0 mi WNW 13.8 mph 19.6 mph N/A Snow Light Snow
3:15 AM 28.4 °F 17.0 °F 23.0 °F 80% 29.92 in 7.0 mi WNW 15.0 mph 23.0 mph N/A   Light Freezing Rain
3:35 AM 28.4 °F 16.6 °F 23.0 °F 80% 29.92 in 10.0 mi NW 16.1 mph - N/A   Light Freezing Rain
3:55 AM 26.6 °F 16.8 °F 23.0 °F 86% 29.92 in 10.0 mi WNW 10.4 mph - N/A   Light Freezing Rain
4:15 AM 26.6 °F 16.2 °F 24.8 °F 93% 29.92 in 3.0 mi WNW 11.5 mph 17.3 mph N/A Snow Light Snow
4:35 AM 26.6 °F 16.2 °F 24.8 °F 93% 29.93 in 0.8 mi WNW 11.5 mph 18.4 mph N/A Snow Light Snow
4:55 AM 26.6 °F 16.8 °F 24.8 °F 93% 29.93 in 3.0 mi NW 10.4 mph - N/A Snow Light Snow
5:15 AM 26.6 °F 18.2 °F 24.8 °F 93% 29.93 in 10.0 mi NW 8.1 mph - N/A   Mostly Cloudy
5:35 AM 24.8 °F 15.3 °F 23.0 °F 93% 29.93 in 10.0 mi WNW 9.2 mph - N/A   Overcast
6:15 AM 24.8 °F 14.0 °F 21.2 °F 86% 29.94 in 10.0 mi West 11.5 mph - N/A   Overcast
6:35 AM 21.2 °F 10.1 °F 19.4 °F 93% 29.94 in 10.0 mi WNW 10.4 mph - N/A   Overcast
7:15 AM 17.6 °F 5.7 °F 14.0 °F 86% 29.95 in 10.0 mi West 10.4 mph - N/A   Mostly Cloudy
7:35 AM 15.8 °F 5.1 °F 14.0 °F 93% 29.95 in 10.0 mi West 8.1 mph - N/A   Clear
7:55 AM 15.8 °F 4.2 °F 14.0 °F 93% 29.96 in 9.0 mi West 9.2 mph - N/A   Clear
8:15 AM 17.6 °F 6.4 °F 14.0 °F 86% 29.96 in 10.0 mi WNW 9.2 mph - N/A   Clear
8:35 AM 17.6 °F 6.4 °F 15.8 °F 93% 29.96 in 7.0 mi WNW 9.2 mph - N/A   Clear
8:55 AM 21.2 °F 10.9 °F 19.4 °F 93% 29.97 in 10.0 mi NW 9.2 mph - N/A   Partly Cloudy
9:15 AM 24.8 °F 15.3 °F 21.2 °F 86% 29.97 in 10.0 mi NW 9.2 mph - N/A   Scattered Clouds
9:35 AM 24.8 °F 12.9 °F 21.2 °F 86% 29.97 in 9.0 mi NW 13.8 mph - N/A   Mostly Cloudy
9:55 AM 24.8 °F 12.9 °F 23.0 °F 93% 29.97 in 10.0 mi NW 13.8 mph - N/A   Mostly Cloudy
10:15 AM 26.6 °F 15.2 °F 23.0 °F 86% 29.97 in 9.0 mi NW 13.8 mph - N/A   Light Freezing Rain
10:35 AM 26.6 °F 15.2 °F 24.8 °F 93% 29.97 in 3.0 mi NW 13.8 mph 19.6 mph N/A   Overcast
10:55 AM 28.4 °F 17.0 °F 24.8 °F 86% 29.98 in 5.0 mi NW 15.0 mph 20.7 mph N/A   Overcast
11:15 AM 28.4 °F 17.0 °F 26.6 °F 93% 29.98 in 4.0 mi NW 15.0 mph 21.9 mph N/A Snow Light Snow
11:35 AM 28.4 °F 15.8 °F 24.8 °F 86% 29.98 in 8.0 mi NNW 18.4 mph - N/A   Overcast
11:55 AM 28.4 °F 16.2 °F 26.6 °F 93% 29.99 in 7.0 mi NNW 17.3 mph 26.5 mph N/A   Light Freezing Rain
12:15 PM 28.4 °F 15.8 °F 26.6 °F 93% 30.00 in 7.0 mi NNW 18.4 mph 25.3 mph N/A   Overcast
12:35 PM 28.4 °F 16.2 °F 26.6 °F 93% 30.01 in 4.0 mi NNW 17.3 mph 31.1 mph N/A   Light Freezing Rain
12:55 PM 28.4 °F 17.0 °F 26.6 °F 93% 30.02 in 2.0 mi NNW 15.0 mph 27.6 mph N/A   Light Freezing Rain
1:15 PM 28.4 °F 14.7 °F 26.6 °F 93% 30.02 in 3.0 mi NNW 21.9 mph 27.6 mph N/A   Light Freezing Rain
1:35 PM 28.4 °F 15.1 °F 26.6 °F 93% 30.03 in 1.2 mi NNW 20.7 mph 27.6 mph N/A   Mostly Cloudy
1:55 PM 28.4 °F 14.1 °F 26.6 °F 93% 30.04 in 0.8 mi NNW 24.2 mph - N/A   Overcast
2:15 PM 28.4 °F 13.8 °F 26.6 °F 93% 30.05 in 1.0 mi NNW 25.3 mph 32.2 mph N/A   Overcast
2:35 PM 28.4 °F 14.7 °F 24.8 °F 86% 30.06 in 1.8 mi NNW 21.9 mph 29.9 mph N/A   Overcast
2:55 PM 28.4 °F 14.1 °F 24.8 °F 86% 30.07 in 4.0 mi NNW 24.2 mph 31.1 mph N/A   Mostly Cloudy
3:15 PM 28.4 °F 14.7 °F 24.8 °F 86% 30.08 in 2.0 mi NNW 21.9 mph 28.8 mph N/A Snow Light Snow
3:35 PM 28.4 °F 15.8 °F 24.8 °F 86% 30.09 in 4.0 mi NNW 18.4 mph 31.1 mph N/A Snow Light Snow
3:55 PM 26.6 °F 13.4 °F 24.8 °F 93% 30.10 in 4.0 mi NNW 18.4 mph 31.1 mph N/A Snow Light Snow
4:15 PM 26.6 °F 13.1 °F 23.0 °F 86% 30.11 in 8.0 mi NNW 19.6 mph 29.9 mph N/A Snow Light Snow
4:35 PM 26.6 °F 12.7 °F 23.0 °F 86% 30.12 in 9.0 mi NNW 20.7 mph 27.6 mph N/A Snow Light Snow
4:55 PM 26.6 °F 12.7 °F 23.0 °F 86% 30.13 in 10.0 mi NNW 20.7 mph 28.8 mph N/A Snow Light Snow
5:15 PM 26.6 °F 12.7 °F 23.0 °F 86% 30.14 in 10.0 mi NNW 20.7 mph 28.8 mph N/A Snow Light Snow
5:35 PM 26.6 °F 12.7 °F 23.0 °F 86% 30.14 in 10.0 mi NNW 20.7 mph 27.6 mph N/A Snow Light Snow
5:55 PM 24.8 °F 10.7 °F 23.0 °F 93% 30.16 in 10.0 mi NNW 19.6 mph 28.8 mph N/A Snow Light Snow
6:15 PM 24.8 °F 11.1 °F 23.0 °F 93% 30.17 in 10.0 mi NNW 18.4 mph - N/A Snow Light Snow
6:35 PM 24.8 °F 10.3 °F 23.0 °F 93% 30.18 in 10.0 mi NNW 20.7 mph - N/A Snow Light Snow
6:55 PM 24.8 °F 11.5 °F 23.0 °F 93% 30.19 in 10.0 mi NNW 17.3 mph - N/A   Overcast
7:15 PM 26.6 °F 13.8 °F 23.0 °F 86% 30.20 in 10.0 mi NNW 17.3 mph 26.5 mph N/A Snow Light Snow
7:35 PM 24.8 °F 10.0 °F 23.0 °F 93% 30.20 in 10.0 mi NNW 21.9 mph - N/A Snow Light Snow
7:55 PM 24.8 °F 10.7 °F 23.0 °F 93% 30.21 in 10.0 mi NNW 19.6 mph 29.9 mph N/A Snow Light Snow
8:15 PM 24.8 °F 11.5 °F 23.0 °F 93% 30.21 in 10.0 mi NNW 17.3 mph 25.3 mph N/A Snow Light Snow
8:35 PM 24.8 °F 11.9 °F 21.2 °F 86% 30.22 in 10.0 mi NNW 16.1 mph - N/A   Overcast
8:55 PM 24.8 °F 10.0 °F 21.2 °F 86% 30.23 in 10.0 mi NNW 21.9 mph - N/A Snow Light Snow
9:15 PM 24.8 °F 10.7 °F 21.2 °F 86% 30.25 in 10.0 mi NW 19.6 mph - N/A   Overcast
9:35 PM 23.0 °F 9.6 °F 21.2 °F 93% 30.24 in 6.0 mi NNW 16.1 mph 28.8 mph N/A Rain Light Freezing Rain
9:55 PM 23.0 °F 9.2 °F 21.2 °F 93% 30.24 in 10.0 mi NNW 17.3 mph 24.2 mph N/A   Light Freezing Rain
10:15 PM 23.0 °F 8.7 °F 21.2 °F 93% 30.25 in 10.0 mi NNW 18.4 mph 26.5 mph N/A Snow Light Snow
10:35 PM 23.0 °F 8.7 °F 19.4 °F 86% 30.26 in 10.0 mi NNW 18.4 mph 25.3 mph N/A   Overcast
10:55 PM 21.2 °F 7.8 °F 19.4 °F 93% 30.26 in 10.0 mi NNW 15.0 mph - N/A   Overcast
11:15 PM 21.2 °F 8.3 °F 19.4 °F 93% 30.27 in 10.0 mi NNW 13.8 mph 20.7 mph N/A   Overcast
11:35 PM 21.2 °F 9.5 °F 19.4 °F 93% 30.27 in 10.0 mi NNW 11.5 mph - N/A   Overcast
11:55 PM 21.2 °F 7.8 °F 19.4 °F 93% 30.27 in 10.0 mi NNW 15.0 mph - N/A   Overcast